createdAt,value
2024-04-24T00:02:39.798Z,98959.09
2024-04-24T00:12:42.052Z,98959.91
2024-04-24T00:22:44.001Z,98942.34
2024-04-24T00:32:45.879Z,98946.56
2024-04-24T00:42:47.899Z,98966.59
2024-04-24T00:52:50.687Z,98938.97
2024-04-24T01:02:53.130Z,98937.28
2024-04-24T01:12:55.101Z,98923.88
2024-04-24T01:23:15.035Z,98919.69
2024-04-24T01:33:18.177Z,98931.38
2024-04-24T01:43:19.993Z,98912.88
2024-04-24T01:53:22.132Z,98927.13
2024-04-24T02:03:24.198Z,98932.91
2024-04-24T02:13:26.028Z,98921.16
2024-04-24T02:23:32.634Z,98912.78
2024-04-24T02:33:34.836Z,98909.50
2024-04-24T02:43:36.967Z,98886.84
2024-04-24T02:53:39.023Z,98904.41
2024-04-24T03:03:41.174Z,98864.28
2024-04-24T03:13:42.924Z,98883.50
2024-04-24T03:23:44.648Z,98888.50
2024-04-24T03:33:46.438Z,98896.03
2024-04-24T03:43:48.187Z,98896.84
2024-04-24T03:53:49.996Z,98894.34
2024-04-24T04:03:52.333Z,98875.06
2024-04-24T04:13:55.297Z,98854.19
2024-04-24T04:23:57.224Z,98877.66
2024-04-24T04:33:59.281Z,98870.94
2024-04-24T04:44:01.352Z,98885.19
2024-04-24T04:54:03.321Z,98880.97
2024-04-24T05:04:05.792Z,98883.47
2024-04-24T05:14:07.814Z,98860.94
2024-04-24T05:24:09.903Z,98878.47
2024-04-24T05:34:11.803Z,98883.41
2024-04-24T05:44:14.018Z,98869.09
2024-04-24T05:54:16.227Z,98907.59
2024-04-24T06:04:18.066Z,98910.91
2024-04-24T06:14:19.939Z,98913.44
2024-04-24T06:24:21.915Z,98915.06
2024-04-24T06:34:24.064Z,98911.78
2024-04-24T06:44:26.188Z,98907.63
2024-04-24T06:54:28.052Z,98867.41
2024-04-24T07:04:30.064Z,98917.63
2024-04-24T07:14:32.278Z,98918.53
2024-04-24T07:24:34.112Z,98914.28
2024-04-24T07:34:36.309Z,98916.81
2024-04-24T07:44:38.261Z,98907.69
2024-04-24T07:54:40.129Z,98903.53
2024-04-24T08:04:43.740Z,98910.25
2024-04-24T08:14:45.581Z,98909.50
2024-04-24T08:24:47.400Z,98912.81
2024-04-24T08:34:49.223Z,98913.66
2024-04-24T08:44:52.797Z,98922.88
2024-04-24T08:54:59.205Z,98907.00
2024-04-24T09:05:02.529Z,98915.44
2024-04-24T09:15:05.207Z,98898.66
2024-04-24T09:25:07.350Z,98913.72
2024-04-24T09:35:09.201Z,98911.25
2024-04-24T09:45:11.499Z,98924.69
2024-04-24T09:55:13.521Z,98918.00
2024-04-24T10:05:33.362Z,98913.84
2024-04-24T10:15:44.604Z,98903.03
2024-04-24T10:25:48.541Z,98903.06
2024-04-24T10:35:50.694Z,98890.50
2024-04-24T10:45:57.346Z,98909.75
2024-04-24T10:56:03.887Z,98907.28
2024-04-24T11:06:14.521Z,98909.81
2024-04-24T11:16:16.545Z,98913.16
2024-04-24T11:26:18.958Z,98893.09
2024-04-24T11:36:21.290Z,98904.81
2024-04-24T11:46:24.540Z,98876.38
2024-04-24T11:56:26.572Z,98891.34
2024-04-24T12:06:29.823Z,98874.66
2024-04-24T12:16:31.639Z,98873.75
2024-04-24T12:26:33.693Z,98856.19
2024-04-24T12:36:39.387Z,98862.03
2024-04-24T12:46:41.478Z,98854.44
2024-04-24T12:56:43.289Z,98834.31
2024-04-24T13:06:45.241Z,98842.63
2024-04-24T13:16:47.302Z,98814.81
2024-04-24T13:26:49.424Z,98816.34
2024-04-24T13:36:51.510Z,98818.72
2024-04-24T13:46:53.984Z,98811.00
2024-04-24T13:56:56.777Z,98802.50
2024-04-24T14:06:58.895Z,98788.44
2024-04-24T14:17:00.833Z,98783.44
2024-04-24T14:27:02.702Z,98804.97
2024-04-24T14:37:06.220Z,98791.53
2024-04-24T14:47:08.267Z,98764.13
2024-04-24T14:57:10.787Z,98783.25
2024-04-24T15:07:14.286Z,98724.09
2024-04-24T15:17:16.350Z,98787.88
2024-04-24T15:27:18.264Z,98796.66
2024-04-24T15:37:20.222Z,98759.19
2024-04-24T15:47:22.884Z,98780.97
2024-04-24T15:57:24.798Z,98794.25
2024-04-24T16:07:26.668Z,98768.16
2024-04-24T16:17:28.830Z,98767.16
2024-04-24T16:27:30.808Z,98797.25
2024-04-24T16:37:32.785Z,98802.38
2024-04-24T16:47:35.002Z,98789.97
2024-04-24T16:57:38.047Z,98789.16
2024-04-24T17:07:40.038Z,98815.09
2024-04-24T17:17:42.090Z,98813.44
2024-04-24T17:27:44.147Z,98828.59
2024-04-24T17:37:45.998Z,98809.38
2024-04-24T17:47:47.904Z,98817.72
2024-04-24T17:57:51.181Z,98834.50
2024-04-24T18:07:53.534Z,98829.50
2024-04-24T18:17:55.987Z,98831.19
2024-04-24T18:27:58.641Z,98821.16
2024-04-24T18:38:00.972Z,98848.75
2024-04-24T18:48:06.992Z,98848.72
2024-04-24T18:58:10.901Z,98852.03
2024-04-24T19:08:12.708Z,98857.03
2024-04-24T19:18:15.901Z,98860.34
2024-04-24T19:28:18.230Z,98881.13
2024-04-24T19:38:24.244Z,98870.22
2024-04-24T19:48:26.336Z,98880.16
2024-04-24T19:58:28.254Z,98875.06
2024-04-24T20:08:31.538Z,98892.72
2024-04-24T20:18:35.607Z,98880.16
2024-04-24T20:28:37.587Z,98888.50
2024-04-24T20:38:39.613Z,98890.03
2024-04-24T20:48:41.781Z,98855.63
2024-04-24T20:58:47.050Z,98899.13
2024-04-24T21:08:51.451Z,98904.06
2024-04-24T21:18:54.047Z,98891.53
2024-04-24T21:28:56.232Z,98912.44
2024-04-24T21:38:58.973Z,98889.81
2024-04-24T21:49:00.824Z,98838.69
2024-04-24T21:59:02.865Z,98911.56
2024-04-24T22:09:05.204Z,98898.16
2024-04-24T22:29:09.368Z,98912.44
2024-04-24T22:39:11.264Z,98883.91
2024-04-24T22:49:13.110Z,98896.47
2024-04-24T22:59:15.043Z,98892.22
2024-04-24T23:09:17.061Z,98921.44
2024-04-24T23:19:21.124Z,98890.41
2024-04-24T23:29:23.289Z,98890.38
2024-04-24T23:39:25.061Z,98890.25
2024-04-24T23:49:26.933Z,98902.81
2024-04-24T23:59:28.866Z,98891.91
